sensor_id;sensor_type;location;lat;lon;timestamp;pressure;altitude;pressure_sealevel;temperature;humidity
10006;BME280;5042;42.626;23.382;2023-04-27T00:00:25;94047.47;;;8.50;84.09
10006;BME280;5042;42.626;23.382;2023-04-27T00:02:53;94043.63;;;8.46;84.26
10006;BME280;5042;42.626;23.382;2023-04-27T00:05:20;94048.66;;;8.47;83.77
10006;BME280;5042;42.626;23.382;2023-04-27T00:07:47;94045.97;;;8.41;83.68
10006;BME280;5042;42.626;23.382;2023-04-27T00:10:14;94058.84;;;8.42;82.74
10006;BME280;5042;42.626;23.382;2023-04-27T00:12:40;94065.69;;;8.43;84.08
10006;BME280;5042;42.626;23.382;2023-04-27T00:15:08;94049.09;;;8.36;82.54
10006;BME280;5042;42.626;23.382;2023-04-27T00:17:35;94054.50;;;8.35;85.32
10006;BME280;5042;42.626;23.382;2023-04-27T00:20:05;94058.91;;;8.34;84.56
10006;BME280;5042;42.626;23.382;2023-04-27T00:22:33;94051.63;;;8.29;85.55
10006;BME280;5042;42.626;23.382;2023-04-27T00:25:00;94055.88;;;8.31;84.65
10006;BME280;5042;42.626;23.382;2023-04-27T00:27:27;94058.66;;;8.29;83.72
10006;BME280;5042;42.626;23.382;2023-04-27T00:29:54;94061.28;;;8.29;82.45
10006;BME280;5042;42.626;23.382;2023-04-27T00:32:21;94055.34;;;8.20;82.99
10006;BME280;5042;42.626;23.382;2023-04-27T00:34:48;94053.91;;;8.18;82.38
10006;BME280;5042;42.626;23.382;2023-04-27T00:37:16;94065.34;;;8.17;82.61
10006;BME280;5042;42.626;23.382;2023-04-27T00:39:43;94054.00;;;8.10;82.99
10006;BME280;5042;42.626;23.382;2023-04-27T00:42:09;94057.59;;;8.08;82.38
10006;BME280;5042;42.626;23.382;2023-04-27T00:44:39;94057.44;;;7.95;85.24
10006;BME280;5042;42.626;23.382;2023-04-27T00:47:06;94068.78;;;8.02;83.35
10006;BME280;5042;42.626;23.382;2023-04-27T00:49:33;94068.31;;;7.99;82.43
10006;BME280;5042;42.626;23.382;2023-04-27T00:52:00;94067.00;;;7.88;84.54
10006;BME280;5042;42.626;23.382;2023-04-27T00:54:29;94066.78;;;7.90;84.86
10006;BME280;5042;42.626;23.382;2023-04-27T00:56:56;94064.91;;;7.83;85.30
10006;BME280;5042;42.626;23.382;2023-04-27T00:59:23;94070.84;;;7.77;84.97
10006;BME280;5042;42.626;23.382;2023-04-27T01:01:51;94062.28;;;7.69;84.50
10006;BME280;5042;42.626;23.382;2023-04-27T01:04:18;94070.66;;;7.79;86.04
10006;BME280;5042;42.626;23.382;2023-04-27T01:06:45;94079.84;;;7.75;84.90
10006;BME280;5042;42.626;23.382;2023-04-27T01:09:12;94071.47;;;7.64;84.29
10006;BME280;5042;42.626;23.382;2023-04-27T01:11:42;94092.63;;;7.70;85.44
10006;BME280;5042;42.626;23.382;2023-04-27T01:14:08;94088.47;;;7.60;85.08
10006;BME280;5042;42.626;23.382;2023-04-27T01:16:35;94083.88;;;7.62;84.81
10006;BME280;5042;42.626;23.382;2023-04-27T01:19:03;94084.69;;;7.63;85.60
10006;BME280;5042;42.626;23.382;2023-04-27T01:21:30;94086.31;;;7.64;85.44
10006;BME280;5042;42.626;23.382;2023-04-27T01:23:58;94081.63;;;7.59;85.42
10006;BME280;5042;42.626;23.382;2023-04-27T01:26:24;94088.56;;;7.52;86.42
10006;BME280;5042;42.626;23.382;2023-04-27T01:28:51;94087.28;;;7.48;86.62
10006;BME280;5042;42.626;23.382;2023-04-27T01:31:18;94082.44;;;7.45;86.64
10006;BME280;5042;42.626;23.382;2023-04-27T01:33:44;94090.41;;;7.43;85.48
10006;BME280;5042;42.626;23.382;2023-04-27T01:36:11;94086.38;;;7.41;87.63
10006;BME280;5042;42.626;23.382;2023-04-27T01:38:38;94090.31;;;7.37;85.98
10006;BME280;5042;42.626;23.382;2023-04-27T01:41:06;94093.56;;;7.39;86.20
10006;BME280;5042;42.626;23.382;2023-04-27T01:43:34;94089.03;;;7.33;87.32
10006;BME280;5042;42.626;23.382;2023-04-27T01:46:06;94065.41;;;7.11;86.37
10006;BME280;5042;42.626;23.382;2023-04-27T01:48:33;94082.91;;;7.26;86.68
10006;BME280;5042;42.626;23.382;2023-04-27T01:51:00;94093.69;;;7.22;85.70
10006;BME280;5042;42.626;23.382;2023-04-27T01:53:28;94095.28;;;7.23;85.34
10006;BME280;5042;42.626;23.382;2023-04-27T01:55:55;94094.84;;;7.20;86.84
10006;BME280;5042;42.626;23.382;2023-04-27T01:58:23;94094.09;;;7.11;87.20
10006;BME280;5042;42.626;23.382;2023-04-27T02:00:50;94093.81;;;7.06;86.72
10006;BME280;5042;42.626;23.382;2023-04-27T02:03:17;94093.44;;;7.09;87.49
10006;BME280;5042;42.626;23.382;2023-04-27T02:05:43;94104.41;;;7.05;87.79
10006;BME280;5042;42.626;23.382;2023-04-27T02:08:11;94111.41;;;7.04;88.07
10006;BME280;5042;42.626;23.382;2023-04-27T02:10:38;94101.47;;;7.08;85.82
10006;BME280;5042;42.626;23.382;2023-04-27T02:13:05;94104.59;;;7.03;87.26
10006;BME280;5042;42.626;23.382;2023-04-27T02:15:33;94101.63;;;7.06;87.05
10006;BME280;5042;42.626;23.382;2023-04-27T02:18:01;94107.84;;;7.05;85.52
10006;BME280;5042;42.626;23.382;2023-04-27T02:20:28;94101.78;;;7.05;86.32
10006;BME280;5042;42.626;23.382;2023-04-27T02:22:55;94109.28;;;7.08;85.99
10006;BME280;5042;42.626;23.382;2023-04-27T02:25:22;94107.47;;;7.08;86.11
10006;BME280;5042;42.626;23.382;2023-04-27T02:27:49;94107.94;;;7.12;84.04
10006;BME280;5042;42.626;23.382;2023-04-27T02:30:15;94104.19;;;7.14;85.94
10006;BME280;5042;42.626;23.382;2023-04-27T02:32:44;94105.50;;;7.10;85.49
10006;BME280;5042;42.626;23.382;2023-04-27T02:35:11;94106.19;;;7.04;85.21
10006;BME280;5042;42.626;23.382;2023-04-27T02:37:38;94105.56;;;7.02;87.85
10006;BME280;5042;42.626;23.382;2023-04-27T02:40:07;94104.63;;;6.95;86.66
10006;BME280;5042;42.626;23.382;2023-04-27T02:42:34;94107.88;;;6.97;86.21
10006;BME280;5042;42.626;23.382;2023-04-27T02:45:03;94106.06;;;6.97;86.92
10006;BME280;5042;42.626;23.382;2023-04-27T02:47:31;94110.03;;;6.93;86.86
10006;BME280;5042;42.626;23.382;2023-04-27T02:49:59;94108.41;;;6.92;87.48
10006;BME280;5042;42.626;23.382;2023-04-27T02:52:26;94101.09;;;6.88;85.92
10006;BME280;5042;42.626;23.382;2023-04-27T02:54:53;94101.44;;;6.85;87.27
10006;BME280;5042;42.626;23.382;2023-04-27T02:57:19;94104.88;;;6.85;88.53
10006;BME280;5042;42.626;23.382;2023-04-27T02:59:46;94111.00;;;6.92;86.35
10006;BME280;5042;42.626;23.382;2023-04-27T03:02:13;94117.22;;;6.91;86.23
10006;BME280;5042;42.626;23.382;2023-04-27T03:04:40;94118.38;;;6.89;85.29
10006;BME280;5042;42.626;23.382;2023-04-27T03:07:09;94120.34;;;6.87;85.14
10006;BME280;5042;42.626;23.382;2023-04-27T03:09:36;94117.09;;;6.85;85.70
10006;BME280;5042;42.626;23.382;2023-04-27T03:12:03;94122.94;;;6.87;85.80
10006;BME280;5042;42.626;23.382;2023-04-27T03:14:30;94118.25;;;6.82;85.84
10006;BME280;5042;42.626;23.382;2023-04-27T03:16:57;94123.91;;;6.86;84.51
10006;BME280;5042;42.626;23.382;2023-04-27T03:19:23;94124.63;;;6.79;83.86
10006;BME280;5042;42.626;23.382;2023-04-27T03:21:50;94125.19;;;6.90;84.19
10006;BME280;5042;42.626;23.382;2023-04-27T03:24:18;94107.47;;;6.62;84.30
10006;BME280;5042;42.626;23.382;2023-04-27T03:26:46;94129.81;;;6.79;84.61
10006;BME280;5042;42.626;23.382;2023-04-27T03:29:12;94138.97;;;6.75;85.37
10006;BME280;5042;42.626;23.382;2023-04-27T03:31:39;94138.00;;;6.76;85.37
10006;BME280;5042;42.626;23.382;2023-04-27T03:34:06;94132.44;;;6.79;84.10
10006;BME280;5042;42.626;23.382;2023-04-27T03:36:33;94146.59;;;6.77;84.61
10006;BME280;5042;42.626;23.382;2023-04-27T03:39:00;94144.47;;;6.80;83.25
10006;BME280;5042;42.626;23.382;2023-04-27T03:41:28;94142.19;;;6.77;84.02
10006;BME280;5042;42.626;23.382;2023-04-27T03:43:56;94139.75;;;6.76;84.00
10006;BME280;5042;42.626;23.382;2023-04-27T03:46:23;94141.56;;;6.75;85.54
10006;BME280;5042;42.626;23.382;2023-04-27T03:48:49;94147.75;;;6.74;84.21
10006;BME280;5042;42.626;23.382;2023-04-27T03:51:17;94151.00;;;6.76;84.80
10006;BME280;5042;42.626;23.382;2023-04-27T03:53:43;94150.19;;;6.76;85.08
10006;BME280;5042;42.626;23.382;2023-04-27T03:56:10;94152.63;;;6.77;85.57
10006;BME280;5042;42.626;23.382;2023-04-27T03:58:38;94160.16;;;6.72;84.77
10006;BME280;5042;42.626;23.382;2023-04-27T04:01:05;94163.72;;;6.71;83.64
10006;BME280;5042;42.626;23.382;2023-04-27T04:03:34;94179.47;;;6.78;82.73
10006;BME280;5042;42.626;23.382;2023-04-27T04:06:01;94171.97;;;6.83;84.20
10006;BME280;5042;42.626;23.382;2023-04-27T04:08:28;94179.16;;;6.81;83.09
10006;BME280;5042;42.626;23.382;2023-04-27T04:10:55;94187.44;;;6.85;83.69
10006;BME280;5042;42.626;23.382;2023-04-27T04:13:22;94182.56;;;6.82;80.91
10006;BME280;5042;42.626;23.382;2023-04-27T04:15:59;94183.88;;;6.77;81.78
10006;BME280;5042;42.626;23.382;2023-04-27T04:18:26;94191.66;;;6.86;81.68
10006;BME280;5042;42.626;23.382;2023-04-27T04:20:52;94185.19;;;6.82;79.79
10006;BME280;5042;42.626;23.382;2023-04-27T04:23:19;94194.09;;;6.87;80.07
10006;BME280;5042;42.626;23.382;2023-04-27T04:25:46;94188.06;;;6.87;81.15
10006;BME280;5042;42.626;23.382;2023-04-27T04:28:13;94194.56;;;6.91;80.88
10006;BME280;5042;42.626;23.382;2023-04-27T04:30:40;94199.56;;;7.00;79.85
10006;BME280;5042;42.626;23.382;2023-04-27T04:33:08;94208.50;;;7.06;80.24
10006;BME280;5042;42.626;23.382;2023-04-27T04:35:36;94132.00;;;6.68;79.59
10006;BME280;5042;42.626;23.382;2023-04-27T04:38:03;94203.34;;;7.21;80.82
10006;BME280;5042;42.626;23.382;2023-04-27T04:40:30;94199.56;;;7.23;82.03
10006;BME280;5042;42.626;23.382;2023-04-27T04:42:57;94206.66;;;7.38;78.68
10006;BME280;5042;42.626;23.382;2023-04-27T04:45:23;94212.22;;;7.35;76.52
10006;BME280;5042;42.626;23.382;2023-04-27T04:47:50;94219.41;;;7.33;74.67
10006;BME280;5042;42.626;23.382;2023-04-27T04:50:20;94218.16;;;7.29;75.11
10006;BME280;5042;42.626;23.382;2023-04-27T04:52:47;94228.16;;;7.40;76.46
10006;BME280;5042;42.626;23.382;2023-04-27T04:55:14;94223.59;;;7.42;76.11
10006;BME280;5042;42.626;23.382;2023-04-27T04:57:41;94226.84;;;7.44;76.41
10006;BME280;5042;42.626;23.382;2023-04-27T05:00:09;94233.63;;;7.53;75.49
10006;BME280;5042;42.626;23.382;2023-04-27T05:02:38;94235.22;;;7.54;76.01
10006;BME280;5042;42.626;23.382;2023-04-27T05:05:06;94051.88;;;6.47;76.06
10006;BME280;5042;42.626;23.382;2023-04-27T05:07:34;94247.31;;;7.78;73.26
10006;BME280;5042;42.626;23.382;2023-04-27T05:10:01;94248.25;;;8.00;74.27
10006;BME280;5042;42.626;23.382;2023-04-27T05:12:27;94246.75;;;8.21;72.60
10006;BME280;5042;42.626;23.382;2023-04-27T05:14:54;94250.53;;;8.18;72.27
10006;BME280;5042;42.626;23.382;2023-04-27T05:17:21;94238.38;;;8.11;71.29
10006;BME280;5042;42.626;23.382;2023-04-27T05:19:48;94251.16;;;8.20;71.96
10006;BME280;5042;42.626;23.382;2023-04-27T05:22:14;94246.84;;;8.13;73.30
10006;BME280;5042;42.626;23.382;2023-04-27T05:24:42;94250.91;;;8.15;72.22
10006;BME280;5042;42.626;23.382;2023-04-27T05:27:11;94257.19;;;8.21;70.14
10006;BME280;5042;42.626;23.382;2023-04-27T05:29:38;94258.09;;;8.13;69.65
10006;BME280;5042;42.626;23.382;2023-04-27T05:32:05;94254.94;;;8.18;70.31
10006;BME280;5042;42.626;23.382;2023-04-27T05:34:32;94267.03;;;8.19;72.08
10006;BME280;5042;42.626;23.382;2023-04-27T05:36:58;94260.19;;;8.18;73.11
10006;BME280;5042;42.626;23.382;2023-04-27T05:39:25;94256.22;;;8.22;71.83
10006;BME280;5042;42.626;23.382;2023-04-27T05:41:53;94257.75;;;8.16;71.11
10006;BME280;5042;42.626;23.382;2023-04-27T05:44:20;94258.56;;;8.17;71.36
10006;BME280;5042;42.626;23.382;2023-04-27T05:46:49;94261.63;;;8.20;71.61
10006;BME280;5042;42.626;23.382;2023-04-27T05:49:16;94265.03;;;8.21;72.47
10006;BME280;5042;42.626;23.382;2023-04-27T05:51:43;94267.94;;;8.26;72.05
10006;BME280;5042;42.626;23.382;2023-04-27T05:54:09;94258.84;;;8.37;73.23
10006;BME280;5042;42.626;23.382;2023-04-27T05:56:36;94261.66;;;8.35;74.63
10006;BME280;5042;42.626;23.382;2023-04-27T05:59:04;94267.59;;;8.29;71.44
10006;BME280;5042;42.626;23.382;2023-04-27T06:01:31;94259.81;;;8.21;70.96
10006;BME280;5042;42.626;23.382;2023-04-27T06:03:58;94251.97;;;8.21;71.69
10006;BME280;5042;42.626;23.382;2023-04-27T06:06:25;94264.75;;;8.16;71.24
10006;BME280;5042;42.626;23.382;2023-04-27T06:08:53;94270.97;;;8.15;71.42
10006;BME280;5042;42.626;23.382;2023-04-27T06:11:20;94266.13;;;8.12;71.30
10006;BME280;5042;42.626;23.382;2023-04-27T06:13:47;94262.16;;;8.16;72.65
10006;BME280;5042;42.626;23.382;2023-04-27T06:16:15;94267.59;;;8.29;72.68
10006;BME280;5042;42.626;23.382;2023-04-27T06:18:41;94261.13;;;8.40;71.64
10006;BME280;5042;42.626;23.382;2023-04-27T06:21:08;94269.81;;;8.40;71.79
10006;BME280;5042;42.626;23.382;2023-04-27T06:23:35;94275.19;;;8.54;72.64
10006;BME280;5042;42.626;23.382;2023-04-27T06:26:02;94255.03;;;8.62;71.11
10006;BME280;5042;42.626;23.382;2023-04-27T06:28:29;94261.97;;;8.55;70.25
10006;BME280;5042;42.626;23.382;2023-04-27T06:30:56;94250.19;;;8.59;71.65
10006;BME280;5042;42.626;23.382;2023-04-27T06:33:24;94266.66;;;8.75;72.32
10006;BME280;5042;42.626;23.382;2023-04-27T06:35:51;94266.03;;;8.87;70.52
10006;BME280;5042;42.626;23.382;2023-04-27T06:38:17;94264.31;;;8.95;69.52
10006;BME280;5042;42.626;23.382;2023-04-27T06:40:44;94272.78;;;8.97;71.66
10006;BME280;5042;42.626;23.382;2023-04-27T06:43:15;94267.91;;;8.94;71.42
10006;BME280;5042;42.626;23.382;2023-04-27T06:45:42;94262.75;;;9.15;73.50
10006;BME280;5042;42.626;23.382;2023-04-27T06:48:08;94261.44;;;9.41;68.37
10006;BME280;5042;42.626;23.382;2023-04-27T06:50:36;94260.66;;;9.62;68.55
10006;BME280;5042;42.626;23.382;2023-04-27T06:53:03;94264.56;;;9.94;68.81
10006;BME280;5042;42.626;23.382;2023-04-27T06:55:30;94274.59;;;10.33;66.04
10006;BME280;5042;42.626;23.382;2023-04-27T06:57:57;94266.00;;;10.46;65.26
10006;BME280;5042;42.626;23.382;2023-04-27T07:00:23;94266.13;;;10.94;66.45
10006;BME280;5042;42.626;23.382;2023-04-27T07:02:51;94253.03;;;10.94;65.25
10006;BME280;5042;42.626;23.382;2023-04-27T07:05:18;94271.28;;;11.16;62.23
10006;BME280;5042;42.626;23.382;2023-04-27T07:07:46;94271.75;;;11.33;62.56
10006;BME280;5042;42.626;23.382;2023-04-27T07:10:13;94271.81;;;11.46;60.45
10006;BME280;5042;42.626;23.382;2023-04-27T07:12:41;94262.84;;;11.27;60.66
10006;BME280;5042;42.626;23.382;2023-04-27T07:15:08;94256.41;;;11.30;59.95
10006;BME280;5042;42.626;23.382;2023-04-27T07:17:35;94270.13;;;11.38;60.55
10006;BME280;5042;42.626;23.382;2023-04-27T07:20:02;94271.44;;;11.56;59.13
10006;BME280;5042;42.626;23.382;2023-04-27T07:22:30;94266.16;;;11.62;60.15
10006;BME280;5042;42.626;23.382;2023-04-27T07:24:58;94272.88;;;11.78;58.95
10006;BME280;5042;42.626;23.382;2023-04-27T07:27:25;94273.69;;;11.85;56.34
10006;BME280;5042;42.626;23.382;2023-04-27T07:29:52;94266.88;;;11.98;55.71
10006;BME280;5042;42.626;23.382;2023-04-27T07:32:19;94262.56;;;11.77;55.70
10006;BME280;5042;42.626;23.382;2023-04-27T07:34:46;94262.25;;;12.00;59.55
10006;BME280;5042;42.626;23.382;2023-04-27T07:37:14;94256.78;;;12.21;57.07
10006;BME280;5042;42.626;23.382;2023-04-27T07:39:41;94263.03;;;12.00;58.84
10006;BME280;5042;42.626;23.382;2023-04-27T07:42:10;94266.09;;;12.04;55.89
10006;BME280;5042;42.626;23.382;2023-04-27T07:44:36;94257.00;;;12.26;57.49
10006;BME280;5042;42.626;23.382;2023-04-27T07:47:03;94262.81;;;12.75;56.22
10006;BME280;5042;42.626;23.382;2023-04-27T07:49:30;94233.38;;;13.11;55.29
10006;BME280;5042;42.626;23.382;2023-04-27T07:51:57;94267.09;;;13.86;54.01
10006;BME280;5042;42.626;23.382;2023-04-27T07:54:23;94270.88;;;14.29;52.83
10006;BME280;5042;42.626;23.382;2023-04-27T07:56:51;94265.16;;;14.82;51.54
10006;BME280;5042;42.626;23.382;2023-04-27T07:59:19;94268.69;;;15.31;49.88
10006;BME280;5042;42.626;23.382;2023-04-27T08:01:46;94262.88;;;15.04;47.09
10006;BME280;5042;42.626;23.382;2023-04-27T08:04:12;94267.59;;;15.20;46.36
10006;BME280;5042;42.626;23.382;2023-04-27T08:06:41;94269.72;;;14.93;47.47
10006;BME280;5042;42.626;23.382;2023-04-27T08:09:08;94270.47;;;14.75;48.07
10006;BME280;5042;42.626;23.382;2023-04-27T08:11:34;94266.22;;;14.49;49.01
10006;BME280;5042;42.626;23.382;2023-04-27T08:14:01;94273.81;;;14.39;48.52
10006;BME280;5042;42.626;23.382;2023-04-27T08:16:29;94266.53;;;14.34;50.43
10006;BME280;5042;42.626;23.382;2023-04-27T08:18:57;94266.84;;;14.76;48.80
10006;BME280;5042;42.626;23.382;2023-04-27T08:21:24;94258.31;;;14.74;46.48
10006;BME280;5042;42.626;23.382;2023-04-27T08:23:52;94269.69;;;14.75;46.41
10006;BME280;5042;42.626;23.382;2023-04-27T08:26:19;94270.91;;;14.22;45.31
10006;BME280;5042;42.626;23.382;2023-04-27T08:28:46;94279.84;;;13.89;46.79
10006;BME280;5042;42.626;23.382;2023-04-27T08:31:13;94269.91;;;13.91;48.92
10006;BME280;5042;42.626;23.382;2023-04-27T08:33:41;94269.72;;;13.86;46.75
10006;BME280;5042;42.626;23.382;2023-04-27T08:36:08;94264.94;;;13.70;48.54
10006;BME280;5042;42.626;23.382;2023-04-27T08:38:35;94269.38;;;13.31;48.55
10006;BME280;5042;42.626;23.382;2023-04-27T08:41:03;94264.88;;;13.38;49.65
10006;BME280;5042;42.626;23.382;2023-04-27T08:43:33;94262.31;;;13.31;48.59
10006;BME280;5042;42.626;23.382;2023-04-27T08:46:01;94256.63;;;13.28;51.55
10006;BME280;5042;42.626;23.382;2023-04-27T08:48:28;94247.66;;;13.42;52.49
10006;BME280;5042;42.626;23.382;2023-04-27T08:50:58;94264.03;;;13.51;51.08
10006;BME280;5042;42.626;23.382;2023-04-27T08:53:27;94277.03;;;13.39;49.94
10006;BME280;5042;42.626;23.382;2023-04-27T08:55:54;94263.34;;;13.10;50.06
10006;BME280;5042;42.626;23.382;2023-04-27T08:58:22;94247.13;;;13.20;50.76
10006;BME280;5042;42.626;23.382;2023-04-27T09:01:04;94188.94;;;12.83;50.58
10006;BME280;5042;42.626;23.382;2023-04-27T09:03:31;94265.72;;;13.39;49.80
10006;BME280;5042;42.626;23.382;2023-04-27T09:06:00;94272.38;;;13.41;49.55
10006;BME280;5042;42.626;23.382;2023-04-27T09:08:27;94243.50;;;13.14;49.85
10006;BME280;5042;42.626;23.382;2023-04-27T09:10:54;94266.16;;;13.15;51.26
10006;BME280;5042;42.626;23.382;2023-04-27T09:13:20;94262.88;;;13.33;52.51
10006;BME280;5042;42.626;23.382;2023-04-27T09:15:49;94168.91;;;12.89;54.08
10006;BME280;5042;42.626;23.382;2023-04-27T09:18:17;94230.72;;;13.18;49.43
10006;BME280;5042;42.626;23.382;2023-04-27T09:20:44;94262.69;;;13.28;48.69
10006;BME280;5042;42.626;23.382;2023-04-27T09:23:24;94266.53;;;13.26;48.79
10006;BME280;5042;42.626;23.382;2023-04-27T09:25:52;94221.25;;;13.04;50.18
10006;BME280;5042;42.626;23.382;2023-04-27T09:28:19;94256.81;;;13.33;49.76
10006;BME280;5042;42.626;23.382;2023-04-27T09:30:51;94241.38;;;13.43;48.71
10006;BME280;5042;42.626;23.382;2023-04-27T09:33:22;94257.97;;;14.14;46.41
10006;BME280;5042;42.626;23.382;2023-04-27T09:35:49;94257.16;;;14.45;46.37
10006;BME280;5042;42.626;23.382;2023-04-27T09:38:19;94215.59;;;14.40;46.42
10006;BME280;5042;42.626;23.382;2023-04-27T09:40:46;94242.59;;;14.86;48.29
10006;BME280;5042;42.626;23.382;2023-04-27T09:43:13;94246.25;;;15.22;46.75
10006;BME280;5042;42.626;23.382;2023-04-27T09:45:41;94238.75;;;14.82;46.05
10006;BME280;5042;42.626;23.382;2023-04-27T09:48:08;94222.03;;;14.45;46.04
10006;BME280;5042;42.626;23.382;2023-04-27T09:50:37;94233.19;;;14.72;47.38
10006;BME280;5042;42.626;23.382;2023-04-27T09:53:06;94232.72;;;14.50;43.99
10006;BME280;5042;42.626;23.382;2023-04-27T09:55:38;94218.81;;;14.17;44.67
10006;BME280;5042;42.626;23.382;2023-04-27T09:58:23;94227.69;;;14.23;47.32
10006;BME280;5042;42.626;23.382;2023-04-27T10:01:05;94228.81;;;14.09;45.04
10006;BME280;5042;42.626;23.382;2023-04-27T10:03:42;94231.22;;;13.85;46.34
10006;BME280;5042;42.626;23.382;2023-04-27T10:09:34;94222.84;;;14.70;48.12
10006;BME280;5042;42.626;23.382;2023-04-27T10:12:15;94230.63;;;15.20;43.46
10006;BME280;5042;42.626;23.382;2023-04-27T10:14:53;94221.81;;;15.45;43.05
10006;BME280;5042;42.626;23.382;2023-04-27T10:17:24;94223.34;;;15.83;42.01
10006;BME280;5042;42.626;23.382;2023-04-27T10:19:58;94225.59;;;16.09;42.37
10006;BME280;5042;42.626;23.382;2023-04-27T10:22:36;94236.22;;;15.61;42.07
10006;BME280;5042;42.626;23.382;2023-04-27T10:25:12;94130.09;;;14.48;40.31
10006;BME280;5042;42.626;23.382;2023-04-27T10:27:42;94221.78;;;14.53;42.23
10006;BME280;5042;42.626;23.382;2023-04-27T10:30:10;94218.28;;;14.59;41.83
10006;BME280;5042;42.626;23.382;2023-04-27T10:32:37;94225.13;;;14.67;42.55
10006;BME280;5042;42.626;23.382;2023-04-27T10:35:06;94213.47;;;14.74;44.52
10006;BME280;5042;42.626;23.382;2023-04-27T10:37:38;94180.78;;;14.57;44.81
10006;BME280;5042;42.626;23.382;2023-04-27T10:40:07;94213.09;;;14.46;43.37
10006;BME280;5042;42.626;23.382;2023-04-27T10:42:35;94224.28;;;14.66;44.52
10006;BME280;5042;42.626;23.382;2023-04-27T10:45:04;94222.25;;;14.68;44.97
10006;BME280;5042;42.626;23.382;2023-04-27T10:47:39;94187.13;;;14.24;41.40
10006;BME280;5042;42.626;23.382;2023-04-27T10:50:07;94185.84;;;14.52;45.04
10006;BME280;5042;42.626;23.382;2023-04-27T10:52:37;94219.53;;;15.30;45.81
10006;BME280;5042;42.626;23.382;2023-04-27T10:55:13;94216.63;;;15.68;42.05
10006;BME280;5042;42.626;23.382;2023-04-27T10:57:47;94233.50;;;15.49;43.99
10006;BME280;5042;42.626;23.382;2023-04-27T11:00:21;94211.00;;;15.46;41.29
10006;BME280;5042;42.626;23.382;2023-04-27T11:02:48;94213.16;;;15.38;42.89
10006;BME280;5042;42.626;23.382;2023-04-27T11:05:16;94189.28;;;14.96;41.94
10006;BME280;5042;42.626;23.382;2023-04-27T11:07:43;94213.78;;;15.03;40.39
10006;BME280;5042;42.626;23.382;2023-04-27T11:10:14;94214.38;;;15.05;41.37
10006;BME280;5042;42.626;23.382;2023-04-27T11:12:42;94211.84;;;14.73;42.27
10006;BME280;5042;42.626;23.382;2023-04-27T11:15:09;94207.75;;;15.14;44.35
10006;BME280;5042;42.626;23.382;2023-04-27T11:17:37;94213.38;;;15.18;43.35
10006;BME280;5042;42.626;23.382;2023-04-27T11:20:05;94212.38;;;15.00;39.58
10006;BME280;5042;42.626;23.382;2023-04-27T11:22:33;94209.66;;;14.89;40.28
10006;BME280;5042;42.626;23.382;2023-04-27T11:25:00;94218.03;;;14.86;40.71
10006;BME280;5042;42.626;23.382;2023-04-27T11:27:36;94206.06;;;14.65;40.96
10006;BME280;5042;42.626;23.382;2023-04-27T11:30:04;94224.72;;;14.63;41.38
10006;BME280;5042;42.626;23.382;2023-04-27T11:32:32;94214.84;;;14.33;41.25
10006;BME280;5042;42.626;23.382;2023-04-27T11:35:00;94222.56;;;14.28;41.92
10006;BME280;5042;42.626;23.382;2023-04-27T11:37:27;94227.53;;;14.18;42.07
10006;BME280;5042;42.626;23.382;2023-04-27T11:39:54;94223.50;;;14.15;42.70
10006;BME280;5042;42.626;23.382;2023-04-27T11:42:22;94205.84;;;13.91;42.66
10006;BME280;5042;42.626;23.382;2023-04-27T11:44:54;94215.63;;;14.09;43.72
10006;BME280;5042;42.626;23.382;2023-04-27T11:47:23;94227.25;;;14.01;43.74
10006;BME280;5042;42.626;23.382;2023-04-27T11:49:50;94216.00;;;13.87;44.51
10006;BME280;5042;42.626;23.382;2023-04-27T11:52:19;94224.63;;;14.01;44.60
10006;BME280;5042;42.626;23.382;2023-04-27T11:54:47;94226.84;;;13.97;45.00
10006;BME280;5042;42.626;23.382;2023-04-27T11:57:14;94239.03;;;13.98;42.29
10006;BME280;5042;42.626;23.382;2023-04-27T11:59:41;94194.34;;;13.78;42.60
10006;BME280;5042;42.626;23.382;2023-04-27T12:02:08;94229.44;;;13.79;44.01
10006;BME280;5042;42.626;23.382;2023-04-27T12:04:35;94234.72;;;13.79;43.20
10006;BME280;5042;42.626;23.382;2023-04-27T12:07:02;94230.94;;;14.00;45.31
10006;BME280;5042;42.626;23.382;2023-04-27T12:09:30;94233.56;;;14.25;44.10
10006;BME280;5042;42.626;23.382;2023-04-27T12:11:57;94231.13;;;14.24;43.74
10006;BME280;5042;42.626;23.382;2023-04-27T12:14:24;94240.03;;;14.29;42.63
10006;BME280;5042;42.626;23.382;2023-04-27T12:16:51;94235.44;;;14.18;42.99
10006;BME280;5042;42.626;23.382;2023-04-27T12:19:18;94240.91;;;14.16;43.05
10006;BME280;5042;42.626;23.382;2023-04-27T12:21:44;94236.84;;;13.95;42.23
10006;BME280;5042;42.626;23.382;2023-04-27T12:24:11;94241.06;;;13.96;45.33
10006;BME280;5042;42.626;23.382;2023-04-27T12:26:39;94239.94;;;13.86;44.20
10006;BME280;5042;42.626;23.382;2023-04-27T12:29:06;94247.00;;;13.53;44.35
10006;BME280;5042;42.626;23.382;2023-04-27T12:31:33;94241.13;;;13.51;44.36
10006;BME280;5042;42.626;23.382;2023-04-27T12:33:59;94238.84;;;13.62;43.96
10006;BME280;5042;42.626;23.382;2023-04-27T12:36:26;94246.47;;;13.76;42.98
10006;BME280;5042;42.626;23.382;2023-04-27T12:38:57;94241.34;;;13.88;43.45
10006;BME280;5042;42.626;23.382;2023-04-27T12:41:24;94242.94;;;13.89;43.65
10006;BME280;5042;42.626;23.382;2023-04-27T12:43:52;94229.41;;;13.86;43.51
10006;BME280;5042;42.626;23.382;2023-04-27T12:46:19;94242.19;;;13.82;42.50
10006;BME280;5042;42.626;23.382;2023-04-27T12:48:46;94238.94;;;13.80;43.95
10006;BME280;5042;42.626;23.382;2023-04-27T12:51:12;94238.59;;;13.70;45.04
10006;BME280;5042;42.626;23.382;2023-04-27T12:53:39;94247.28;;;13.77;43.92
10006;BME280;5042;42.626;23.382;2023-04-27T12:56:06;94240.81;;;13.73;43.52
10006;BME280;5042;42.626;23.382;2023-04-27T12:58:33;94248.53;;;13.68;43.17
10006;BME280;5042;42.626;23.382;2023-04-27T13:01:01;94248.19;;;13.57;45.19
10006;BME280;5042;42.626;23.382;2023-04-27T13:03:28;94247.75;;;13.67;45.11
10006;BME280;5042;42.626;23.382;2023-04-27T13:05:55;94245.06;;;13.74;44.50
10006;BME280;5042;42.626;23.382;2023-04-27T13:08:21;94242.38;;;13.81;44.09
10006;BME280;5042;42.626;23.382;2023-04-27T13:10:48;94237.94;;;13.81;43.16